createdAt,value
2022-09-12T00:01:08.823Z,82.58
2022-09-12T00:02:12.111Z,82.70
2022-09-12T00:03:14.741Z,82.67
2022-09-12T00:04:16.393Z,82.71
2022-09-12T00:05:19.064Z,82.81
2022-09-12T00:06:23.615Z,82.91
2022-09-12T00:07:26.122Z,82.83
2022-09-12T00:08:27.645Z,82.88
2022-09-12T00:09:30.129Z,82.97
2022-09-12T00:10:33.004Z,82.95
2022-09-12T00:11:37.307Z,82.94
2022-09-12T00:12:38.879Z,82.92
2022-09-12T00:13:43.220Z,82.93
2022-09-12T00:14:44.788Z,83.00
2022-09-12T00:15:47.273Z,82.87
2022-09-12T00:16:48.860Z,82.88
2022-09-12T00:17:51.629Z,82.89
2022-09-12T00:18:54.516Z,82.70
2022-09-12T00:19:56.559Z,82.91
2022-09-12T00:21:03.809Z,82.88
2022-09-12T00:22:05.343Z,82.87
2022-09-12T00:23:07.833Z,82.81
2022-09-12T00:24:10.651Z,82.77
2022-09-12T00:25:13.369Z,82.88
2022-09-12T00:26:17.553Z,82.95
2022-09-12T00:27:20.271Z,82.92
2022-09-12T00:28:21.807Z,82.92
2022-09-12T00:29:24.319Z,82.95
2022-09-12T00:30:25.952Z,82.75
2022-09-12T00:31:28.812Z,82.93
2022-09-12T00:32:30.982Z,82.89
2022-09-12T00:33:33.571Z,82.93
2022-09-12T00:34:36.036Z,82.95
2022-09-12T00:35:44.090Z,82.91
2022-09-12T00:36:45.678Z,82.92
2022-09-12T00:37:48.199Z,83.00
2022-09-12T00:38:50.542Z,83.03
2022-09-12T00:39:53.112Z,83.04
2022-09-12T00:40:54.670Z,83.26
2022-09-12T00:41:58.494Z,82.87
2022-09-12T00:43:00.028Z,83.13
2022-09-12T00:44:23.619Z,83.07
2022-09-12T00:45:28.526Z,83.04
2022-09-12T00:46:38.928Z,83.15
2022-09-12T00:47:41.761Z,83.11
2022-09-12T00:48:48.345Z,83.09
2022-09-12T00:49:55.394Z,83.05
2022-09-12T00:50:57.925Z,83.07
2022-09-12T00:52:05.558Z,83.04
2022-09-12T00:53:09.897Z,83.16
2022-09-12T00:54:16.555Z,83.16
2022-09-12T00:55:22.379Z,83.12
2022-09-12T00:56:24.447Z,83.05
2022-09-12T00:57:32.945Z,83.15
2022-09-12T00:58:39.923Z,83.17
2022-09-12T00:59:48.061Z,83.03
2022-09-12T01:00:50.631Z,83.10
2022-09-12T01:01:53.598Z,83.09
2022-09-12T01:02:58.835Z,83.20
2022-09-12T01:04:02.080Z,83.07
2022-09-12T01:05:05.647Z,82.84
2022-09-12T01:06:14.270Z,83.14
2022-09-12T01:07:16.295Z,82.97
2022-09-12T01:08:18.923Z,83.04
2022-09-12T01:09:23.001Z,83.14
2022-09-12T01:10:25.662Z,83.23
2022-09-12T01:11:28.341Z,83.17
2022-09-12T01:12:33.041Z,82.99
2022-09-12T01:13:35.552Z,83.17
2022-09-12T01:14:39.162Z,83.21
2022-09-12T01:15:42.085Z,83.10
2022-09-12T01:16:45.737Z,83.20
2022-09-12T01:18:01.836Z,83.15
2022-09-12T01:19:20.112Z,83.13
2022-09-12T01:21:00.102Z,83.03
2022-09-12T01:22:18.401Z,82.98
2022-09-12T01:24:05.916Z,83.04
2022-09-12T01:25:25.494Z,82.98
2022-09-12T01:27:04.610Z,83.16
2022-09-12T01:28:43.228Z,83.17
2022-09-12T01:30:24.686Z,83.23
2022-09-12T01:31:35.324Z,83.13
2022-09-12T01:32:53.353Z,83.33
2022-09-12T01:34:04.501Z,83.44
2022-09-12T01:35:20.980Z,83.33
2022-09-12T01:36:35.750Z,83.47
2022-09-12T01:37:44.601Z,83.67
2022-09-12T01:38:50.896Z,83.49
2022-09-12T01:40:00.401Z,83.58
2022-09-12T01:41:12.666Z,83.56
2022-09-12T01:42:21.338Z,83.63
2022-09-12T01:43:27.202Z,83.65
2022-09-12T01:44:37.468Z,83.63
2022-09-12T01:45:44.563Z,83.68
2022-09-12T01:46:53.787Z,83.64
2022-09-12T01:48:02.163Z,83.63
2022-09-12T01:49:12.550Z,83.30
2022-09-12T01:50:19.609Z,83.46
2022-09-12T01:51:26.268Z,83.53
2022-09-12T01:52:32.796Z,83.58
2022-09-12T01:53:39.387Z,83.61
2022-09-12T01:54:47.217Z,83.45
2022-09-12T01:55:52.186Z,83.58
2022-09-12T01:57:00.600Z,83.61
2022-09-12T01:58:07.672Z,83.71
2022-09-12T01:59:15.980Z,83.67
2022-09-12T02:00:18.136Z,83.63
2022-09-12T02:01:25.383Z,83.61
2022-09-12T02:02:33.968Z,83.68
2022-09-12T02:03:44.922Z,83.70
2022-09-12T02:04:52.648Z,83.75
2022-09-12T02:06:00.383Z,83.74
2022-09-12T02:07:08.180Z,83.71
2022-09-12T02:08:15.017Z,83.69
2022-09-12T02:09:22.616Z,83.89
2022-09-12T02:10:33.832Z,83.69
2022-09-12T02:11:41.052Z,83.60
2022-09-12T02:12:47.200Z,83.73
2022-09-12T02:13:55.153Z,83.71
2022-09-12T02:15:03.260Z,83.85
2022-09-12T02:16:11.214Z,83.65
2022-09-12T02:17:16.512Z,83.61
2022-09-12T02:18:22.010Z,83.65
2022-09-12T02:19:26.695Z,83.62
2022-09-12T02:20:47.459Z,83.61
2022-09-12T02:21:53.652Z,83.71
2022-09-12T02:22:58.469Z,83.68
2022-09-12T02:24:03.053Z,83.70
2022-09-12T02:25:09.021Z,83.71
2022-09-12T02:26:18.863Z,83.73
2022-09-12T02:27:24.946Z,83.69
2022-09-12T02:28:30.914Z,83.79
2022-09-12T02:29:33.689Z,83.70
2022-09-12T02:30:43.051Z,83.64
2022-09-12T02:31:47.977Z,83.58
2022-09-12T02:32:58.276Z,83.55
2022-09-12T02:34:10.864Z,83.67
2022-09-12T02:35:22.149Z,83.45
2022-09-12T02:36:34.480Z,83.42
2022-09-12T02:37:48.597Z,83.45
2022-09-12T02:38:51.685Z,83.33
2022-09-12T02:39:55.301Z,83.50
2022-09-12T02:40:57.973Z,83.35
2022-09-12T02:42:01.757Z,83.38
2022-09-12T02:43:06.357Z,83.49
2022-09-12T02:44:07.916Z,83.37
2022-09-12T02:45:12.367Z,83.36
2022-09-12T02:46:20.361Z,83.17
2022-09-12T02:47:29.807Z,83.23
2022-09-12T02:48:35.997Z,83.42
2022-09-12T02:49:39.983Z,83.26
2022-09-12T02:50:42.227Z,83.38
2022-09-12T02:51:45.905Z,83.19
2022-09-12T02:52:48.520Z,83.40
2022-09-12T02:53:51.550Z,83.15
2022-09-12T02:54:54.661Z,83.18
2022-09-12T02:55:57.740Z,83.10
2022-09-12T02:56:59.286Z,83.27
2022-09-12T02:58:04.175Z,83.43
2022-09-12T02:59:09.071Z,83.17
2022-09-12T03:00:12.924Z,83.40
2022-09-12T03:01:26.306Z,83.26
2022-09-12T03:02:39.971Z,83.32
2022-09-12T03:04:05.789Z,83.17
2022-09-12T03:05:22.252Z,83.11
2022-09-12T03:06:33.159Z,83.21
2022-09-12T03:08:05.786Z,83.16
2022-09-12T03:09:17.293Z,83.12
2022-09-12T03:10:24.881Z,83.27
2022-09-12T03:11:52.192Z,83.16
2022-09-12T03:13:08.703Z,83.13
2022-09-12T03:14:26.582Z,83.13
2022-09-12T03:15:40.075Z,83.10
2022-09-12T03:16:49.684Z,83.00
2022-09-12T03:18:05.525Z,83.22
2022-09-12T03:19:16.438Z,83.00
2022-09-12T03:20:29.288Z,83.27
2022-09-12T03:21:37.216Z,83.22
2022-09-12T03:22:53.400Z,83.22
2022-09-12T03:24:05.425Z,83.12
2022-09-12T03:25:17.476Z,83.17
2022-09-12T03:26:27.062Z,83.02
2022-09-12T03:27:33.873Z,83.02
2022-09-12T03:28:36.500Z,83.14
2022-09-12T03:29:41.609Z,82.96
2022-09-12T03:30:45.221Z,82.89
2022-09-12T03:31:51.496Z,83.18
2022-09-12T03:32:54.828Z,83.10
2022-09-12T03:33:57.304Z,83.02
2022-09-12T03:34:59.027Z,83.07
2022-09-12T03:36:03.359Z,83.22
2022-09-12T03:37:06.601Z,83.01
2022-09-12T03:38:08.600Z,83.06
2022-09-12T03:39:11.153Z,83.02
2022-09-12T03:40:12.806Z,83.03
2022-09-12T03:41:15.317Z,82.99
2022-09-12T03:42:17.897Z,82.92
2022-09-12T03:43:20.643Z,82.94
2022-09-12T03:44:22.761Z,83.14
2022-09-12T03:45:25.309Z,83.05
2022-09-12T03:46:26.911Z,83.03
2022-09-12T03:47:29.854Z,83.00
2022-09-12T03:48:31.738Z,82.84
2022-09-12T03:49:34.236Z,82.87
2022-09-12T03:50:35.843Z,82.96
2022-09-12T03:51:39.841Z,82.94
2022-09-12T03:52:41.368Z,82.98
2022-09-12T03:53:44.365Z,82.94
2022-09-12T03:54:45.896Z,82.90
2022-09-12T03:55:48.400Z,82.94
2022-09-12T03:56:49.936Z,83.12
2022-09-12T03:57:53.818Z,82.90
2022-09-12T03:58:55.392Z,82.80
2022-09-12T03:59:57.978Z,82.83
2022-09-12T04:00:59.730Z,82.85
2022-09-12T04:02:02.745Z,82.97
2022-09-12T04:03:04.324Z,82.77
2022-09-12T04:04:06.846Z,82.79
2022-09-12T04:05:08.992Z,82.74
2022-09-12T04:06:14.701Z,82.93
2022-09-12T04:07:17.624Z,82.79
2022-09-12T04:08:20.117Z,82.62
2022-09-12T04:09:21.718Z,82.89
2022-09-12T04:10:24.197Z,82.96
2022-09-12T04:11:25.746Z,82.84
2022-09-12T04:12:28.236Z,82.69
2022-09-12T04:13:29.758Z,82.84
2022-09-12T04:14:32.266Z,82.93
2022-09-12T04:15:33.843Z,82.77
2022-09-12T04:16:36.351Z,82.92
2022-09-12T04:17:38.170Z,82.88
2022-09-12T04:18:40.753Z,82.84
2022-09-12T04:19:42.295Z,82.84
2022-09-12T04:20:44.793Z,82.66
2022-09-12T04:21:46.384Z,82.97
2022-09-12T04:22:50.275Z,82.75
2022-09-12T04:23:51.838Z,82.70
2022-09-12T04:24:54.324Z,82.85
2022-09-12T04:25:56.507Z,82.85
2022-09-12T04:26:59.285Z,82.82
2022-09-12T04:28:01.054Z,82.73
2022-09-12T04:29:03.629Z,82.76
2022-09-12T04:30:06.348Z,82.67
2022-09-12T04:31:12.270Z,82.88
2022-09-12T04:32:14.986Z,82.85
2022-09-12T04:33:17.795Z,82.97
2022-09-12T04:34:20.356Z,82.86
2022-09-12T04:35:21.913Z,82.64
2022-09-12T04:36:25.561Z,82.80
2022-09-12T04:37:27.083Z,82.84
2022-09-12T04:38:30.911Z,82.87
2022-09-12T04:39:32.508Z,82.82
2022-09-12T04:40:35.009Z,82.85
2022-09-12T04:41:38.862Z,82.81
2022-09-12T04:42:41.402Z,82.69
2022-09-12T04:43:46.287Z,82.88
2022-09-12T04:44:49.436Z,83.02
2022-09-12T04:45:51.878Z,82.80
2022-09-12T04:46:54.772Z,82.77
2022-09-12T04:47:56.449Z,82.74
2022-09-12T04:48:58.939Z,82.62
2022-09-12T04:50:00.431Z,82.66
2022-09-12T04:51:11.081Z,82.71
2022-09-12T04:52:12.600Z,82.53
2022-09-12T04:53:15.172Z,82.81
2022-09-12T04:54:19.556Z,82.81
2022-09-12T04:55:25.214Z,82.52
2022-09-12T04:56:28.463Z,82.76
2022-09-12T04:57:30.973Z,82.77
2022-09-12T04:58:33.114Z,82.76
2022-09-12T04:59:35.625Z,82.77
2022-09-12T05:00:37.145Z,82.69
2022-09-12T05:01:40.036Z,82.58
2022-09-12T05:02:42.155Z,82.65
2022-09-12T05:03:45.634Z,82.71
2022-09-12T05:04:47.176Z,82.45
2022-09-12T05:05:53.257Z,82.43
2022-09-12T05:06:57.356Z,82.42
2022-09-12T05:08:00.159Z,82.46
2022-09-12T05:09:03.260Z,82.43
2022-09-12T05:10:08.275Z,82.34
2022-09-12T05:11:13.340Z,82.29
2022-09-12T05:12:15.823Z,82.35
2022-09-12T05:13:17.359Z,82.41
2022-09-12T05:14:19.914Z,82.28
2022-09-12T05:15:21.503Z,82.27
2022-09-12T05:16:25.789Z,82.30
2022-09-12T05:17:29.113Z,82.37
2022-09-12T05:18:32.745Z,82.26
2022-09-12T05:19:35.479Z,82.30
2022-09-12T05:20:37.253Z,82.27
2022-09-12T05:21:40.317Z,82.23
2022-09-12T05:22:41.903Z,82.35
2022-09-12T05:23:44.574Z,82.32
2022-09-12T05:24:50.429Z,82.18
2022-09-12T05:25:57.511Z,81.74
2022-09-12T05:27:00.181Z,81.96
2022-09-12T05:28:02.122Z,82.10
2022-09-12T05:29:05.460Z,82.07
2022-09-12T05:30:08.490Z,81.97
2022-09-12T05:31:14.353Z,81.99
2022-09-12T05:32:15.932Z,81.77
2022-09-12T05:33:22.013Z,81.78
2022-09-12T05:34:27.773Z,81.84
2022-09-12T05:35:29.390Z,81.74
2022-09-12T05:36:32.092Z,81.71
2022-09-12T05:37:33.651Z,81.73
2022-09-12T05:38:37.325Z,81.80
2022-09-12T05:39:38.999Z,81.53
2022-09-12T05:40:41.525Z,81.55
2022-09-12T05:41:44.442Z,81.44
2022-09-12T05:42:46.932Z,81.34
2022-09-12T05:43:52.875Z,81.28
2022-09-12T05:44:55.354Z,81.10
2022-09-12T05:46:00.987Z,80.93
2022-09-12T05:47:03.593Z,80.83
2022-09-12T05:48:05.302Z,80.68
2022-09-12T05:49:09.744Z,80.50
2022-09-12T05:50:12.207Z,80.56
2022-09-12T05:51:19.237Z,80.42
2022-09-12T05:52:20.881Z,80.18
2022-09-12T05:53:28.051Z,80.02
2022-09-12T05:54:31.788Z,79.93
2022-09-12T05:55:34.118Z,79.71
2022-09-12T05:56:40.256Z,79.59
2022-09-12T05:57:45.981Z,79.56
2022-09-12T05:58:54.033Z,79.29
2022-09-12T05:59:55.601Z,79.21
2022-09-12T06:01:03.073Z,79.15
2022-09-12T06:02:05.639Z,78.98
2022-09-12T06:03:07.277Z,78.96
2022-09-12T06:04:10.497Z,79.04
2022-09-12T06:05:12.066Z,78.74
2022-09-12T06:06:16.057Z,78.71
2022-09-12T06:07:17.609Z,78.70
2022-09-12T06:08:20.127Z,78.40
2022-09-12T06:09:22.757Z,78.43
2022-09-12T06:10:26.270Z,78.23
2022-09-12T06:11:31.074Z,78.16
2022-09-12T06:12:32.663Z,78.11
2022-09-12T06:13:38.399Z,78.09
2022-09-12T06:14:40.934Z,78.08
2022-09-12T06:15:42.466Z,77.75
2022-09-12T06:16:45.378Z,77.82
2022-09-12T06:17:51.365Z,77.61
2022-09-12T06:18:55.890Z,77.58
2022-09-12T06:19:57.465Z,77.33
2022-09-12T06:21:03.791Z,77.33
2022-09-12T06:22:06.278Z,77.21
2022-09-12T06:23:07.842Z,77.20
2022-09-12T06:24:10.712Z,77.15
2022-09-12T06:25:12.409Z,76.95
2022-09-12T06:26:16.603Z,77.10
2022-09-12T06:27:18.723Z,76.79
2022-09-12T06:28:21.370Z,76.59
2022-09-12T06:29:25.760Z,76.54
2022-09-12T06:30:27.903Z,76.62
2022-09-12T06:31:33.081Z,76.62
2022-09-12T06:32:34.777Z,76.46
2022-09-12T06:33:39.150Z,76.29
2022-09-12T06:34:40.727Z,76.11
2022-09-12T06:35:43.649Z,75.94
2022-09-12T06:36:47.781Z,76.05
2022-09-12T06:37:49.512Z,76.21
2022-09-12T06:38:56.115Z,75.87
2022-09-12T06:39:57.814Z,75.96
2022-09-12T06:41:00.553Z,75.67
2022-09-12T06:42:03.577Z,75.77
2022-09-12T06:43:05.770Z,75.55
2022-09-12T06:44:08.370Z,75.52
2022-09-12T06:45:11.616Z,75.65
2022-09-12T06:46:14.135Z,75.33
2022-09-12T06:47:15.840Z,75.52
2022-09-12T06:48:18.504Z,75.35
2022-09-12T06:49:20.154Z,75.34
2022-09-12T06:50:22.648Z,75.31
2022-09-12T06:51:24.497Z,75.18
2022-09-12T06:52:29.030Z,75.21
2022-09-12T06:53:33.225Z,74.91
2022-09-12T06:54:35.830Z,75.12
2022-09-12T06:55:37.342Z,74.91
2022-09-12T06:56:39.877Z,75.12
2022-09-12T06:57:41.412Z,74.55
2022-09-12T06:58:44.826Z,74.54
2022-09-12T06:59:46.392Z,74.63
2022-09-12T07:00:50.336Z,74.55
2022-09-12T07:01:51.971Z,74.63
2022-09-12T07:02:56.331Z,74.54
2022-09-12T07:04:00.158Z,74.41
2022-09-12T07:05:02.944Z,74.42
2022-09-12T07:06:06.302Z,74.40
2022-09-12T07:07:09.188Z,74.37
2022-09-12T07:08:10.764Z,74.12
2022-09-12T07:09:17.258Z,74.26
2022-09-12T07:10:22.215Z,74.12
2022-09-12T07:11:26.959Z,74.19
2022-09-12T07:12:28.922Z,74.32
2022-09-12T07:13:31.448Z,74.12
2022-09-12T07:14:34.026Z,74.20
2022-09-12T07:15:36.286Z,74.12
2022-09-12T07:16:40.322Z,73.96
2022-09-12T07:17:41.935Z,74.02
2022-09-12T07:18:46.141Z,74.02
2022-09-12T07:19:47.738Z,74.07
2022-09-12T07:20:50.224Z,73.76
2022-09-12T07:21:55.321Z,74.10
2022-09-12T07:23:01.106Z,73.86
2022-09-12T07:24:47.672Z,73.78
2022-09-12T07:25:53.161Z,73.90
2022-09-12T07:26:56.029Z,73.70
2022-09-12T07:27:57.540Z,73.74
2022-09-12T07:29:25.244Z,73.90
2022-09-12T07:30:23.346Z,73.81
2022-09-12T07:31:27.445Z,73.68
2022-09-12T07:32:36.274Z,73.79
2022-09-12T07:33:38.802Z,73.58
2022-09-12T07:34:41.294Z,73.83
2022-09-12T07:35:42.843Z,73.46
2022-09-12T07:36:45.506Z,73.68
2022-09-12T07:37:47.201Z,73.56
2022-09-12T07:38:57.219Z,73.65
2022-09-12T07:39:59.367Z,73.23
2022-09-12T07:41:02.397Z,73.49
2022-09-12T07:42:04.316Z,73.24
2022-09-12T07:43:06.961Z,73.44
2022-09-12T07:44:09.560Z,73.04
2022-09-12T07:45:11.269Z,73.07
2022-09-12T07:46:14.491Z,72.87
2022-09-12T07:47:16.041Z,73.13
2022-09-12T07:48:19.898Z,73.08
2022-09-12T07:49:21.455Z,73.13
2022-09-12T07:50:24.266Z,73.01
2022-09-12T07:51:27.349Z,72.62
2022-09-12T07:52:29.937Z,73.00
2022-09-12T07:53:33.949Z,72.82
2022-09-12T07:54:36.542Z,72.53
2022-09-12T07:55:38.141Z,72.59
2022-09-12T07:56:40.771Z,72.44
2022-09-12T07:57:42.325Z,72.88
2022-09-12T07:58:45.600Z,72.55
2022-09-12T07:59:52.897Z,72.42
2022-09-12T08:00:55.910Z,72.79
2022-09-12T08:01:58.699Z,72.71
2022-09-12T08:03:00.231Z,72.35
2022-09-12T08:04:05.023Z,72.43
2022-09-12T08:05:07.158Z,72.68
2022-09-12T08:06:11.545Z,72.33
2022-09-12T08:07:14.652Z,72.50
2022-09-12T08:08:16.173Z,72.71
2022-09-12T08:09:18.849Z,72.59
2022-09-12T08:10:20.560Z,72.54
2022-09-12T08:11:24.986Z,72.62
2022-09-12T08:12:28.878Z,72.58
2022-09-12T08:13:32.280Z,72.53
2022-09-12T08:14:47.862Z,72.21
2022-09-12T08:15:51.801Z,72.46
2022-09-12T08:16:57.525Z,72.47
2022-09-12T08:17:59.125Z,72.15
2022-09-12T08:19:02.433Z,72.53
2022-09-12T08:20:06.396Z,72.26
2022-09-12T08:21:13.644Z,71.99
2022-09-12T08:22:16.176Z,72.42
2022-09-12T08:23:17.937Z,72.21
2022-09-12T08:24:20.446Z,71.88
2022-09-12T08:25:21.975Z,71.68
2022-09-12T08:26:25.081Z,71.89
2022-09-12T08:27:27.577Z,71.71
2022-09-12T08:28:29.993Z,71.60
2022-09-12T08:29:32.472Z,71.80
2022-09-12T08:30:34.037Z,71.28
2022-09-12T08:31:37.246Z,71.87
2022-09-12T08:32:38.790Z,71.41
2022-09-12T08:33:41.601Z,71.27
2022-09-12T08:34:43.137Z,70.96
2022-09-12T08:35:47.420Z,70.87
2022-09-12T08:36:49.882Z,70.93
2022-09-12T08:37:51.429Z,71.14
2022-09-12T08:38:59.877Z,71.23
2022-09-12T08:40:06.559Z,71.14
2022-09-12T08:41:21.844Z,70.96
2022-09-12T08:42:33.650Z,70.85
2022-09-12T08:44:00.541Z,70.58
2022-09-12T08:45:14.765Z,70.34
2022-09-12T08:46:21.606Z,69.98
2022-09-12T08:47:29.691Z,70.25
2022-09-12T08:48:31.365Z,70.04
2022-09-12T08:49:39.693Z,69.66
2022-09-12T08:50:49.256Z,69.58
2022-09-12T08:51:55.142Z,69.12
2022-09-12T08:53:02.863Z,69.11
2022-09-12T08:54:09.789Z,68.76
2022-09-12T08:55:28.468Z,68.81
2022-09-12T08:56:37.331Z,69.10
2022-09-12T08:57:39.536Z,68.99
2022-09-12T08:58:44.151Z,68.58
2022-09-12T08:59:46.353Z,68.24
2022-09-12T09:00:56.538Z,68.18
2022-09-12T09:02:00.892Z,68.47
2022-09-12T09:03:30.828Z,68.33
2022-09-12T09:04:42.842Z,68.14
2022-09-12T09:05:52.118Z,68.41
2022-09-12T09:07:15.591Z,68.04
2022-09-12T09:08:28.789Z,68.33
2022-09-12T09:09:43.820Z,68.12
2022-09-12T09:10:51.863Z,68.66
2022-09-12T09:12:00.615Z,68.22
2022-09-12T09:13:35.133Z,68.29
2022-09-12T09:14:49.513Z,68.66
2022-09-12T09:16:04.073Z,68.91
2022-09-12T09:17:11.319Z,68.71
2022-09-12T09:18:20.928Z,68.72
2022-09-12T09:19:28.026Z,68.93
2022-09-12T09:20:37.191Z,68.87
2022-09-12T09:21:43.438Z,68.79
2022-09-12T09:22:50.845Z,69.23
2022-09-12T09:23:59.988Z,69.17
2022-09-12T09:25:08.913Z,68.97
2022-09-12T09:26:16.337Z,68.75
2022-09-12T09:27:40.582Z,69.13
2022-09-12T09:28:47.622Z,69.30
2022-09-12T09:29:53.096Z,68.76
2022-09-12T09:30:55.869Z,69.26
2022-09-12T09:32:03.341Z,69.03
2022-09-12T09:33:12.481Z,68.84
2022-09-12T09:34:19.757Z,68.62
2022-09-12T09:35:32.161Z,68.61
2022-09-12T09:36:49.352Z,69.03
2022-09-12T09:38:01.767Z,68.85
2022-09-12T09:39:07.161Z,68.68
2022-09-12T09:40:18.924Z,68.71
2022-09-12T09:41:36.110Z,68.66
2022-09-12T09:42:45.074Z,68.44
2022-09-12T09:43:48.036Z,68.95
2022-09-12T09:44:53.107Z,68.58
2022-09-12T09:45:57.390Z,68.53
2022-09-12T09:47:00.241Z,68.95
2022-09-12T09:48:16.051Z,68.50
2022-09-12T09:49:19.339Z,68.58
2022-09-12T09:50:22.533Z,68.29
2022-09-12T09:51:28.084Z,68.31
2022-09-12T09:52:32.809Z,68.21
2022-09-12T09:53:41.624Z,68.63
2022-09-12T09:54:49.471Z,68.17
2022-09-12T09:55:53.939Z,67.97
2022-09-12T09:56:57.148Z,68.35
2022-09-12T09:57:58.721Z,68.34
2022-09-12T09:59:11.781Z,67.90
2022-09-12T10:00:30.513Z,67.87
2022-09-12T10:01:32.344Z,67.52
2022-09-12T10:02:35.171Z,67.66
2022-09-12T10:03:39.023Z,67.33
2022-09-12T10:04:53.464Z,67.61
2022-09-12T10:05:58.719Z,67.28
2022-09-12T10:07:03.235Z,67.45
2022-09-12T10:08:07.767Z,67.58
2022-09-12T10:09:23.734Z,67.43
2022-09-12T10:10:25.541Z,67.31
2022-09-12T10:11:30.209Z,67.22
2022-09-12T10:12:31.768Z,66.90
2022-09-12T10:13:38.508Z,66.80
2022-09-12T10:14:42.860Z,67.03
2022-09-12T10:15:57.112Z,66.78
2022-09-12T10:16:59.939Z,66.90
2022-09-12T10:18:03.023Z,66.72
2022-09-12T10:19:05.743Z,66.69
2022-09-12T10:20:31.159Z,66.39
2022-09-12T10:21:39.349Z,66.25
2022-09-12T10:22:47.533Z,66.37
2022-09-12T10:23:59.836Z,66.08
2022-09-12T10:25:11.857Z,66.36
2022-09-12T10:26:15.397Z,66.07
2022-09-12T10:27:21.315Z,65.97
2022-09-12T10:28:30.067Z,65.71
2022-09-12T10:29:36.125Z,65.51
2022-09-12T10:30:37.859Z,65.66
2022-09-12T10:31:48.314Z,65.20
2022-09-12T10:32:51.409Z,65.08
2022-09-12T10:33:55.525Z,65.27
2022-09-12T10:35:00.581Z,65.26
2022-09-12T10:36:03.730Z,64.91
2022-09-12T10:37:08.741Z,64.96
2022-09-12T10:38:19.566Z,64.99
2022-09-12T10:39:22.446Z,64.77
2022-09-12T10:40:29.237Z,64.82
2022-09-12T10:41:37.836Z,63.95
2022-09-12T10:42:47.225Z,64.11
2022-09-12T10:43:50.652Z,63.99
2022-09-12T10:44:54.094Z,63.74
2022-09-12T10:45:58.813Z,63.39
2022-09-12T10:47:21.050Z,63.37
2022-09-12T10:48:27.884Z,63.19
2022-09-12T10:49:37.925Z,63.12
2022-09-12T10:50:41.332Z,62.70
2022-09-12T10:51:43.949Z,62.37
2022-09-12T10:52:46.424Z,62.28
2022-09-12T10:53:48.091Z,61.96
2022-09-12T10:54:50.961Z,61.88
2022-09-12T10:56:03.776Z,61.78
2022-09-12T10:57:31.348Z,61.81
2022-09-12T10:59:04.315Z,62.17
2022-09-12T11:00:15.644Z,61.81
2022-09-12T11:01:30.327Z,61.54
2022-09-12T11:02:49.124Z,61.15
2022-09-12T11:04:11.194Z,61.27
2022-09-12T11:05:22.448Z,61.07
2022-09-12T11:06:34.132Z,61.16
2022-09-12T11:07:43.829Z,61.13
2022-09-12T11:08:59.329Z,60.97
2022-09-12T11:10:12.071Z,61.03
2022-09-12T11:11:31.990Z,60.73
2022-09-12T11:12:41.213Z,60.48
2022-09-12T11:14:00.937Z,60.30
2022-09-12T11:15:24.913Z,59.85
2022-09-12T11:16:33.559Z,59.68
2022-09-12T11:17:49.276Z,59.43
2022-09-12T11:19:17.329Z,59.17
2022-09-12T11:20:45.917Z,59.08
2022-09-12T11:22:00.441Z,58.94
2022-09-12T11:23:24.870Z,58.63
2022-09-12T11:24:44.085Z,57.91
2022-09-12T11:25:52.605Z,57.30
2022-09-12T11:27:08.844Z,56.91
2022-09-12T11:28:31.024Z,56.64
2022-09-12T11:29:47.929Z,56.82
2022-09-12T11:31:05.925Z,56.37
2022-09-12T11:32:47.553Z,56.31
2022-09-12T11:33:52.376Z,56.38
2022-09-12T11:35:04.988Z,55.78
2022-09-12T11:36:21.481Z,55.19
2022-09-12T11:37:39.837Z,54.95
2022-09-12T11:39:00.310Z,54.67
2022-09-12T11:40:17.516Z,54.47
2022-09-12T11:41:26.184Z,53.99
2022-09-12T11:42:34.235Z,54.04
2022-09-12T11:43:43.255Z,53.97
2022-09-12T11:44:54.368Z,53.83
2022-09-12T11:46:01.348Z,53.95
2022-09-12T11:47:09.054Z,54.19
2022-09-12T11:48:32.375Z,54.39
2022-09-12T11:49:38.616Z,54.41
2022-09-12T11:50:40.672Z,54.63
2022-09-12T11:51:50.745Z,54.69
2022-09-12T11:52:56.129Z,54.74
2022-09-12T11:54:05.832Z,54.54
2022-09-12T11:55:17.031Z,54.51
2022-09-12T11:56:19.773Z,54.55
2022-09-12T11:57:31.745Z,54.44
2022-09-12T11:58:37.064Z,54.30
2022-09-12T11:59:47.153Z,54.40
2022-09-12T12:00:53.469Z,54.24
2022-09-12T12:02:00.169Z,54.60
2022-09-12T12:03:10.089Z,54.49
2022-09-12T12:04:14.087Z,54.75
2022-09-12T12:05:21.782Z,53.97
2022-09-12T12:06:31.446Z,54.12
2022-09-12T12:07:44.734Z,54.14
2022-09-12T12:08:51.388Z,54.10
2022-09-12T12:09:53.206Z,54.13
2022-09-12T12:10:59.506Z,54.10
2022-09-12T12:12:06.672Z,53.81
2022-09-12T12:13:19.212Z,53.92
2022-09-12T12:14:25.666Z,53.90
2022-09-12T12:15:30.370Z,54.17
2022-09-12T12:16:34.119Z,54.20
2022-09-12T12:17:36.770Z,53.59
2022-09-12T12:18:39.997Z,53.96
2022-09-12T12:19:42.931Z,53.80
2022-09-12T12:20:44.845Z,53.75
2022-09-12T12:21:49.137Z,54.09
2022-09-12T12:22:52.013Z,54.16
2022-09-12T12:24:13.733Z,53.76
2022-09-12T12:25:41.059Z,54.13
2022-09-12T12:26:57.298Z,53.71
2022-09-12T12:28:01.909Z,53.61
2022-09-12T12:29:03.725Z,53.59
2022-09-12T12:30:56.817Z,53.65
2022-09-12T12:32:21.182Z,53.68
2022-09-12T12:34:06.174Z,53.51
2022-09-12T12:35:39.939Z,53.15
2022-09-12T12:36:42.905Z,53.11
2022-09-12T12:37:53.383Z,52.94
2022-09-12T12:38:55.094Z,53.16
2022-09-12T12:40:01.101Z,53.00
2022-09-12T12:41:41.184Z,52.67
2022-09-12T12:43:02.737Z,52.42
2022-09-12T12:44:51.301Z,52.12
2022-09-12T12:46:04.867Z,52.63
2022-09-12T12:47:19.658Z,52.29
2022-09-12T12:48:22.134Z,52.02
2022-09-12T12:49:29.490Z,51.60
2022-09-12T12:50:32.097Z,51.68
2022-09-12T12:51:50.313Z,51.98
2022-09-12T12:52:54.243Z,51.75
2022-09-12T12:53:58.160Z,51.32
2022-09-12T12:55:03.309Z,51.22
2022-09-12T12:56:05.383Z,51.20
2022-09-12T12:57:20.178Z,51.25
2022-09-12T12:58:29.751Z,50.48
2022-09-12T12:59:33.561Z,50.85
2022-09-12T13:00:39.780Z,50.55
2022-09-12T13:01:54.776Z,50.31
2022-09-12T13:03:01.905Z,50.40
2022-09-12T13:04:11.265Z,49.82
2022-09-12T13:05:22.197Z,49.94
2022-09-12T13:06:32.520Z,50.14
2022-09-12T13:07:39.649Z,49.95
2022-09-12T13:08:55.143Z,49.41
2022-09-12T13:10:00.146Z,49.39
2022-09-12T13:11:15.718Z,49.13
2022-09-12T13:12:21.423Z,49.22
2022-09-12T13:13:28.217Z,48.75
2022-09-12T13:14:48.776Z,48.93
2022-09-12T13:15:53.205Z,49.00
2022-09-12T13:17:00.122Z,48.68
2022-09-12T13:18:06.197Z,48.59
2022-09-12T13:19:18.386Z,48.34
2022-09-12T13:20:29.468Z,48.36
2022-09-12T13:21:32.394Z,48.44
2022-09-12T13:22:43.266Z,48.36
2022-09-12T13:24:02.000Z,48.43
2022-09-12T13:25:19.343Z,47.87
2022-09-12T13:26:25.199Z,48.13
2022-09-12T13:27:26.738Z,48.35
2022-09-12T13:28:30.825Z,47.71
2022-09-12T13:29:32.345Z,47.97
2022-09-12T13:30:36.961Z,48.18
2022-09-12T13:31:39.542Z,47.61
2022-09-12T13:32:44.917Z,47.97
2022-09-12T13:33:50.011Z,47.47
2022-09-12T13:35:07.583Z,47.44
2022-09-12T13:36:38.401Z,47.60
2022-09-12T13:37:53.800Z,47.42
2022-09-12T13:39:09.820Z,47.13
2022-09-12T13:40:27.237Z,47.46
2022-09-12T13:41:47.026Z,47.60
2022-09-12T13:42:49.005Z,46.84
2022-09-12T13:43:52.002Z,47.17
2022-09-12T13:44:58.186Z,47.41
2022-09-12T13:46:00.868Z,47.25
2022-09-12T13:47:03.837Z,47.02
2022-09-12T13:48:14.439Z,46.67
2022-09-12T13:49:23.164Z,46.82
2022-09-12T13:50:27.669Z,47.09
2022-09-12T13:51:32.059Z,46.94
2022-09-12T13:52:36.983Z,46.84
2022-09-12T13:53:44.480Z,46.74
2022-09-12T13:54:50.867Z,46.44
2022-09-12T13:55:56.296Z,46.61
2022-09-12T13:56:59.638Z,46.76
2022-09-12T13:58:04.086Z,46.32
2022-09-12T13:59:11.410Z,45.85
2022-09-12T14:00:19.925Z,46.50
2022-09-12T14:01:22.536Z,46.16
2022-09-12T14:02:28.653Z,46.39
2022-09-12T14:03:54.687Z,46.45
2022-09-12T14:05:09.158Z,46.50
2022-09-12T14:06:11.853Z,46.84
2022-09-12T14:07:20.098Z,46.97
2022-09-12T14:08:24.837Z,46.72
2022-09-12T14:09:31.022Z,46.69
2022-09-12T14:10:36.602Z,46.91
2022-09-12T14:11:39.939Z,47.18
2022-09-12T14:12:43.442Z,47.41
2022-09-12T14:13:46.120Z,47.00
2022-09-12T14:14:50.373Z,47.26
2022-09-12T14:15:55.944Z,46.94
2022-09-12T14:16:58.106Z,47.08
2022-09-12T14:18:03.144Z,47.22
2022-09-12T14:19:06.346Z,46.90
2022-09-12T14:20:15.033Z,46.77
2022-09-12T14:21:31.297Z,46.36
2022-09-12T14:22:36.262Z,46.30
2022-09-12T14:23:41.375Z,46.27